sensor_id;sensor_type;location;lat;lon;timestamp;P1;durP1;ratioP1;P2;durP2;ratioP2
10977;SDS011;5542;48.272;10.794;2023-08-20T00:00:00;2.25;;;2.15;;
10977;SDS011;5542;48.272;10.794;2023-08-20T00:02:30;2.30;;;2.20;;
10977;SDS011;5542;48.272;10.794;2023-08-20T00:04:59;2.35;;;2.15;;
10977;SDS011;5542;48.272;10.794;2023-08-20T00:07:28;3.17;;;2.22;;
10977;SDS011;5542;48.272;10.794;2023-08-20T00:09:55;1.97;;;1.87;;
10977;SDS011;5542;48.272;10.794;2023-08-20T00:12:22;2.30;;;2.20;;
10977;SDS011;5542;48.272;10.794;2023-08-20T00:14:51;2.80;;;2.60;;
10977;SDS011;5542;48.272;10.794;2023-08-20T00:17:18;2.60;;;2.40;;
10977;SDS011;5542;48.272;10.794;2023-08-20T00:19:47;3.33;;;3.00;;
10977;SDS011;5542;48.272;10.794;2023-08-20T00:22:15;2.57;;;2.37;;
10977;SDS011;5542;48.272;10.794;2023-08-20T00:24:42;2.70;;;2.50;;
10977;SDS011;5542;48.272;10.794;2023-08-20T00:27:09;2.80;;;2.60;;
10977;SDS011;5542;48.272;10.794;2023-08-20T00:29:36;2.70;;;2.50;;
10977;SDS011;5542;48.272;10.794;2023-08-20T00:32:02;3.67;;;3.10;;
10977;SDS011;5542;48.272;10.794;2023-08-20T00:34:29;2.85;;;2.67;;
10977;SDS011;5542;48.272;10.794;2023-08-20T00:36:57;3.10;;;2.90;;
10977;SDS011;5542;48.272;10.794;2023-08-20T00:39:24;3.80;;;3.28;;
10977;SDS011;5542;48.272;10.794;2023-08-20T00:41:50;3.13;;;2.83;;
10977;SDS011;5542;48.272;10.794;2023-08-20T00:44:17;3.20;;;3.00;;
10977;SDS011;5542;48.272;10.794;2023-08-20T00:46:43;2.92;;;2.72;;
10977;SDS011;5542;48.272;10.794;2023-08-20T00:49:10;3.43;;;3.13;;
10977;SDS011;5542;48.272;10.794;2023-08-20T00:51:37;3.70;;;3.40;;
10977;SDS011;5542;48.272;10.794;2023-08-20T00:54:06;3.05;;;2.85;;
10977;SDS011;5542;48.272;10.794;2023-08-20T00:56:32;3.57;;;3.20;;
10977;SDS011;5542;48.272;10.794;2023-08-20T00:58:59;3.00;;;2.80;;
10977;SDS011;5542;48.272;10.794;2023-08-20T01:01:25;3.17;;;2.97;;
10977;SDS011;5542;48.272;10.794;2023-08-20T01:03:52;3.72;;;3.42;;
10977;SDS011;5542;48.272;10.794;2023-08-20T01:06:19;3.70;;;3.40;;
10977;SDS011;5542;48.272;10.794;2023-08-20T01:08:51;3.28;;;3.08;;
10977;SDS011;5542;48.272;10.794;2023-08-20T01:11:26;2.80;;;2.60;;
10977;SDS011;5542;48.272;10.794;2023-08-20T01:13:58;3.10;;;2.90;;
10977;SDS011;5542;48.272;10.794;2023-08-20T01:16:26;3.10;;;2.80;;
10977;SDS011;5542;48.272;10.794;2023-08-20T01:18:52;2.63;;;2.50;;
10977;SDS011;5542;48.272;10.794;2023-08-20T01:21:20;2.13;;;2.03;;
10977;SDS011;5542;48.272;10.794;2023-08-20T01:24:05;2.13;;;2.03;;
10977;SDS011;5542;48.272;10.794;2023-08-20T01:26:52;2.90;;;2.70;;
10977;SDS011;5542;48.272;10.794;2023-08-20T01:29:28;3.20;;;3.00;;
10977;SDS011;5542;48.272;10.794;2023-08-20T01:31:55;2.97;;;2.78;;
10977;SDS011;5542;48.272;10.794;2023-08-20T01:34:22;2.40;;;2.30;;
10977;SDS011;5542;48.272;10.794;2023-08-20T01:36:49;2.65;;;2.55;;
10977;SDS011;5542;48.272;10.794;2023-08-20T01:39:15;2.22;;;2.13;;
10977;SDS011;5542;48.272;10.794;2023-08-20T01:41:43;2.57;;;2.47;;
10977;SDS011;5542;48.272;10.794;2023-08-20T01:44:10;2.40;;;2.30;;
10977;SDS011;5542;48.272;10.794;2023-08-20T01:46:38;2.73;;;2.50;;
10977;SDS011;5542;48.272;10.794;2023-08-20T01:49:04;2.80;;;2.60;;
10977;SDS011;5542;48.272;10.794;2023-08-20T01:51:31;3.60;;;3.10;;
10977;SDS011;5542;48.272;10.794;2023-08-20T01:53:57;3.10;;;2.90;;
10977;SDS011;5542;48.272;10.794;2023-08-20T01:56:24;2.60;;;2.50;;
10977;SDS011;5542;48.272;10.794;2023-08-20T01:58:50;2.53;;;2.33;;
10977;SDS011;5542;48.272;10.794;2023-08-20T02:01:17;2.75;;;2.55;;
10977;SDS011;5542;48.272;10.794;2023-08-20T02:03:45;2.38;;;2.28;;
10977;SDS011;5542;48.272;10.794;2023-08-20T02:06:12;2.50;;;2.30;;
10977;SDS011;5542;48.272;10.794;2023-08-20T02:08:38;2.17;;;1.97;;
10977;SDS011;5542;48.272;10.794;2023-08-20T02:11:05;1.98;;;1.88;;
10977;SDS011;5542;48.272;10.794;2023-08-20T02:13:31;2.28;;;2.08;;
10977;SDS011;5542;48.272;10.794;2023-08-20T02:15:59;2.50;;;2.33;;
10977;SDS011;5542;48.272;10.794;2023-08-20T02:18:26;2.55;;;2.40;;
10977;SDS011;5542;48.272;10.794;2023-08-20T02:20:54;2.60;;;2.42;;
10977;SDS011;5542;48.272;10.794;2023-08-20T02:23:20;2.25;;;2.15;;
10977;SDS011;5542;48.272;10.794;2023-08-20T02:25:47;2.35;;;2.25;;
10977;SDS011;5542;48.272;10.794;2023-08-20T02:28:14;2.20;;;2.10;;
10977;SDS011;5542;48.272;10.794;2023-08-20T02:30:41;2.23;;;2.13;;
10977;SDS011;5542;48.272;10.794;2023-08-20T02:33:09;2.13;;;1.92;;
10977;SDS011;5542;48.272;10.794;2023-08-20T02:35:36;2.20;;;2.10;;
10977;SDS011;5542;48.272;10.794;2023-08-20T02:38:04;2.10;;;2.00;;
10977;SDS011;5542;48.272;10.794;2023-08-20T02:40:31;2.15;;;2.03;;
10977;SDS011;5542;48.272;10.794;2023-08-20T02:42:57;2.30;;;2.20;;
10977;SDS011;5542;48.272;10.794;2023-08-20T02:45:24;2.50;;;2.35;;
10977;SDS011;5542;48.272;10.794;2023-08-20T02:47:51;2.90;;;2.70;;
10977;SDS011;5542;48.272;10.794;2023-08-20T02:50:17;2.70;;;2.53;;
10977;SDS011;5542;48.272;10.794;2023-08-20T02:52:44;2.53;;;2.33;;
10977;SDS011;5542;48.272;10.794;2023-08-20T02:55:12;3.50;;;3.05;;
10977;SDS011;5542;48.272;10.794;2023-08-20T02:57:39;3.15;;;2.88;;
10977;SDS011;5542;48.272;10.794;2023-08-20T03:00:06;2.85;;;2.65;;
10977;SDS011;5542;48.272;10.794;2023-08-20T03:02:36;2.80;;;2.60;;
10977;SDS011;5542;48.272;10.794;2023-08-20T03:05:03;2.75;;;2.55;;
10977;SDS011;5542;48.272;10.794;2023-08-20T03:07:30;3.00;;;2.80;;
10977;SDS011;5542;48.272;10.794;2023-08-20T03:09:57;2.53;;;2.42;;
10977;SDS011;5542;48.272;10.794;2023-08-20T03:12:25;2.10;;;2.00;;
10977;SDS011;5542;48.272;10.794;2023-08-20T03:14:52;2.33;;;2.22;;
10977;SDS011;5542;48.272;10.794;2023-08-20T03:17:18;3.25;;;2.97;;
10977;SDS011;5542;48.272;10.794;2023-08-20T03:19:53;3.20;;;3.00;;
10977;SDS011;5542;48.272;10.794;2023-08-20T03:22:21;3.83;;;3.42;;
10977;SDS011;5542;48.272;10.794;2023-08-20T03:24:48;3.60;;;3.30;;
10977;SDS011;5542;48.272;10.794;2023-08-20T03:27:15;3.47;;;3.08;;
10977;SDS011;5542;48.272;10.794;2023-08-20T03:29:43;2.93;;;2.73;;
10977;SDS011;5542;48.272;10.794;2023-08-20T03:32:09;2.92;;;2.72;;
10977;SDS011;5542;48.272;10.794;2023-08-20T03:34:36;2.83;;;2.63;;
10977;SDS011;5542;48.272;10.794;2023-08-20T03:37:03;3.30;;;3.10;;
10977;SDS011;5542;48.272;10.794;2023-08-20T03:39:30;2.97;;;2.67;;
10977;SDS011;5542;48.272;10.794;2023-08-20T03:41:57;3.28;;;3.00;;
10977;SDS011;5542;48.272;10.794;2023-08-20T03:44:24;3.60;;;3.30;;
10977;SDS011;5542;48.272;10.794;2023-08-20T03:46:52;3.00;;;2.80;;
10977;SDS011;5542;48.272;10.794;2023-08-20T03:49:18;2.75;;;2.55;;
10977;SDS011;5542;48.272;10.794;2023-08-20T03:51:45;2.83;;;2.63;;
10977;SDS011;5542;48.272;10.794;2023-08-20T03:54:11;2.70;;;2.50;;
10977;SDS011;5542;48.272;10.794;2023-08-20T03:56:38;3.10;;;2.90;;
10977;SDS011;5542;48.272;10.794;2023-08-20T03:59:05;3.10;;;2.90;;
10977;SDS011;5542;48.272;10.794;2023-08-20T04:01:32;2.60;;;2.40;;
10977;SDS011;5542;48.272;10.794;2023-08-20T04:04:00;3.10;;;2.80;;
10977;SDS011;5542;48.272;10.794;2023-08-20T04:06:26;3.70;;;3.40;;
10977;SDS011;5542;48.272;10.794;2023-08-20T04:08:53;3.20;;;3.00;;
10977;SDS011;5542;48.272;10.794;2023-08-20T04:11:19;3.35;;;3.05;;
10977;SDS011;5542;48.272;10.794;2023-08-20T04:13:46;2.85;;;2.63;;
10977;SDS011;5542;48.272;10.794;2023-08-20T04:16:12;2.90;;;2.70;;
10977;SDS011;5542;48.272;10.794;2023-08-20T04:18:39;3.20;;;2.90;;
10977;SDS011;5542;48.272;10.794;2023-08-20T04:21:07;2.80;;;2.60;;
10977;SDS011;5542;48.272;10.794;2023-08-20T04:23:34;2.58;;;2.47;;
10977;SDS011;5542;48.272;10.794;2023-08-20T04:26:01;2.22;;;2.13;;
10977;SDS011;5542;48.272;10.794;2023-08-20T04:28:27;2.28;;;2.17;;
10977;SDS011;5542;48.272;10.794;2023-08-20T04:30:54;2.97;;;2.50;;
10977;SDS011;5542;48.272;10.794;2023-08-20T04:33:21;2.95;;;2.75;;
10977;SDS011;5542;48.272;10.794;2023-08-20T04:35:48;2.60;;;2.42;;
10977;SDS011;5542;48.272;10.794;2023-08-20T04:38:17;2.83;;;2.63;;
10977;SDS011;5542;48.272;10.794;2023-08-20T04:40:45;2.78;;;2.58;;
10977;SDS011;5542;48.272;10.794;2023-08-20T04:43:12;2.90;;;2.60;;
10977;SDS011;5542;48.272;10.794;2023-08-20T04:45:39;2.40;;;2.30;;
10977;SDS011;5542;48.272;10.794;2023-08-20T04:48:06;3.17;;;2.88;;
10977;SDS011;5542;48.272;10.794;2023-08-20T04:50:33;2.90;;;2.70;;
10977;SDS011;5542;48.272;10.794;2023-08-20T04:53:02;3.25;;;2.95;;
10977;SDS011;5542;48.272;10.794;2023-08-20T04:55:30;2.85;;;2.65;;
10977;SDS011;5542;48.272;10.794;2023-08-20T04:57:57;2.80;;;2.60;;
10977;SDS011;5542;48.272;10.794;2023-08-20T05:00:23;3.22;;;3.03;;
10977;SDS011;5542;48.272;10.794;2023-08-20T05:02:50;2.88;;;2.67;;
10977;SDS011;5542;48.272;10.794;2023-08-20T05:05:17;3.58;;;3.22;;
10977;SDS011;5542;48.272;10.794;2023-08-20T05:07:43;3.20;;;2.90;;
10977;SDS011;5542;48.272;10.794;2023-08-20T05:10:10;4.30;;;3.90;;
10977;SDS011;5542;48.272;10.794;2023-08-20T05:12:38;4.38;;;3.97;;
10977;SDS011;5542;48.272;10.794;2023-08-20T05:15:05;4.30;;;3.90;;
10977;SDS011;5542;48.272;10.794;2023-08-20T05:17:32;3.42;;;3.22;;
10977;SDS011;5542;48.272;10.794;2023-08-20T05:19:58;4.28;;;3.90;;
10977;SDS011;5542;48.272;10.794;2023-08-20T05:22:25;4.65;;;4.28;;
10977;SDS011;5542;48.272;10.794;2023-08-20T05:24:51;4.47;;;4.07;;
10977;SDS011;5542;48.272;10.794;2023-08-20T05:27:18;4.93;;;4.53;;
10977;SDS011;5542;48.272;10.794;2023-08-20T05:29:46;4.28;;;3.70;;
10977;SDS011;5542;48.272;10.794;2023-08-20T05:32:12;5.30;;;4.80;;
10977;SDS011;5542;48.272;10.794;2023-08-20T05:34:39;5.32;;;4.88;;
10977;SDS011;5542;48.272;10.794;2023-08-20T05:37:06;4.78;;;4.38;;
10977;SDS011;5542;48.272;10.794;2023-08-20T05:39:36;4.90;;;4.50;;
10977;SDS011;5542;48.272;10.794;2023-08-20T05:42:03;4.78;;;4.30;;
10977;SDS011;5542;48.272;10.794;2023-08-20T05:44:30;4.95;;;4.55;;
10977;SDS011;5542;48.272;10.794;2023-08-20T05:46:59;4.97;;;4.47;;
10977;SDS011;5542;48.272;10.794;2023-08-20T05:49:26;4.70;;;4.30;;
10977;SDS011;5542;48.272;10.794;2023-08-20T05:51:53;4.10;;;3.80;;
10977;SDS011;5542;48.272;10.794;2023-08-20T05:54:19;4.35;;;4.05;;
10977;SDS011;5542;48.272;10.794;2023-08-20T05:56:46;4.45;;;4.05;;
10977;SDS011;5542;48.272;10.794;2023-08-20T05:59:13;4.95;;;4.55;;
10977;SDS011;5542;48.272;10.794;2023-08-20T06:01:39;4.65;;;4.18;;
10977;SDS011;5542;48.272;10.794;2023-08-20T06:04:07;5.72;;;4.07;;
10977;SDS011;5542;48.272;10.794;2023-08-20T06:06:34;4.43;;;3.90;;
10977;SDS011;5542;48.272;10.794;2023-08-20T06:09:01;4.90;;;4.40;;
10977;SDS011;5542;48.272;10.794;2023-08-20T06:11:27;5.00;;;4.40;;
10977;SDS011;5542;48.272;10.794;2023-08-20T06:13:54;4.72;;;4.25;;
10977;SDS011;5542;48.272;10.794;2023-08-20T06:16:21;4.38;;;3.97;;
10977;SDS011;5542;48.272;10.794;2023-08-20T06:18:47;6.03;;;5.53;;
10977;SDS011;5542;48.272;10.794;2023-08-20T06:21:15;6.32;;;5.80;;
10977;SDS011;5542;48.272;10.794;2023-08-20T06:23:42;4.97;;;4.57;;
10977;SDS011;5542;48.272;10.794;2023-08-20T06:26:08;4.90;;;4.47;;
10977;SDS011;5542;48.272;10.794;2023-08-20T06:28:35;5.60;;;5.10;;
10977;SDS011;5542;48.272;10.794;2023-08-20T06:31:02;5.32;;;4.82;;
10977;SDS011;5542;48.272;10.794;2023-08-20T06:33:28;5.35;;;4.82;;
10977;SDS011;5542;48.272;10.794;2023-08-20T06:35:55;5.27;;;4.70;;
10977;SDS011;5542;48.272;10.794;2023-08-20T06:38:23;5.72;;;5.00;;
10977;SDS011;5542;48.272;10.794;2023-08-20T06:40:50;5.82;;;5.25;;
10977;SDS011;5542;48.272;10.794;2023-08-20T06:43:16;5.63;;;5.13;;
10977;SDS011;5542;48.272;10.794;2023-08-20T06:45:43;7.07;;;6.10;;
10977;SDS011;5542;48.272;10.794;2023-08-20T06:48:10;6.95;;;5.43;;
10977;SDS011;5542;48.272;10.794;2023-08-20T06:50:36;5.90;;;5.30;;
10977;SDS011;5542;48.272;10.794;2023-08-20T06:53:03;5.87;;;5.37;;
10977;SDS011;5542;48.272;10.794;2023-08-20T06:55:31;9.27;;;6.20;;
10977;SDS011;5542;48.272;10.794;2023-08-20T06:57:58;5.45;;;5.05;;
10977;SDS011;5542;48.272;10.794;2023-08-20T07:00:25;5.05;;;4.60;;
10977;SDS011;5542;48.272;10.794;2023-08-20T07:02:51;7.03;;;5.03;;
10977;SDS011;5542;48.272;10.794;2023-08-20T07:05:18;6.15;;;5.40;;
10977;SDS011;5542;48.272;10.794;2023-08-20T07:07:45;6.15;;;5.38;;
10977;SDS011;5542;48.272;10.794;2023-08-20T07:10:12;5.65;;;5.15;;
10977;SDS011;5542;48.272;10.794;2023-08-20T07:12:40;5.45;;;5.00;;
10977;SDS011;5542;48.272;10.794;2023-08-20T07:15:07;5.50;;;5.00;;
10977;SDS011;5542;48.272;10.794;2023-08-20T07:17:34;5.13;;;4.72;;
10977;SDS011;5542;48.272;10.794;2023-08-20T07:20:00;4.95;;;4.50;;
10977;SDS011;5542;48.272;10.794;2023-08-20T07:22:27;5.85;;;5.15;;
10977;SDS011;5542;48.272;10.794;2023-08-20T07:24:54;5.15;;;4.75;;
10977;SDS011;5542;48.272;10.794;2023-08-20T07:27:21;5.53;;;4.93;;
10977;SDS011;5542;48.272;10.794;2023-08-20T07:29:49;5.30;;;4.80;;
10977;SDS011;5542;48.272;10.794;2023-08-20T07:32:15;5.30;;;4.80;;
10977;SDS011;5542;48.272;10.794;2023-08-20T07:34:42;5.00;;;4.60;;
10977;SDS011;5542;48.272;10.794;2023-08-20T07:37:08;7.03;;;4.87;;
10977;SDS011;5542;48.272;10.794;2023-08-20T07:39:35;5.20;;;4.80;;
10977;SDS011;5542;48.272;10.794;2023-08-20T07:42:02;4.90;;;4.50;;
10977;SDS011;5542;48.272;10.794;2023-08-20T07:44:28;6.50;;;5.25;;
10977;SDS011;5542;48.272;10.794;2023-08-20T07:46:56;5.35;;;4.85;;
10977;SDS011;5542;48.272;10.794;2023-08-20T07:49:23;7.03;;;5.28;;
10977;SDS011;5542;48.272;10.794;2023-08-20T07:51:50;5.10;;;4.70;;
10977;SDS011;5542;48.272;10.794;2023-08-20T07:54:17;5.05;;;4.65;;
10977;SDS011;5542;48.272;10.794;2023-08-20T07:56:44;5.22;;;4.70;;
10977;SDS011;5542;48.272;10.794;2023-08-20T07:59:10;5.82;;;5.32;;
10977;SDS011;5542;48.272;10.794;2023-08-20T08:01:37;6.37;;;5.77;;
10977;SDS011;5542;48.272;10.794;2023-08-20T08:04:05;5.18;;;4.78;;
10977;SDS011;5542;48.272;10.794;2023-08-20T08:06:31;6.32;;;5.72;;
10977;SDS011;5542;48.272;10.794;2023-08-20T08:11:46;5.30;;;4.80;;
10977;SDS011;5542;48.272;10.794;2023-08-20T08:14:14;6.75;;;4.50;;
10977;SDS011;5542;48.272;10.794;2023-08-20T08:16:40;5.30;;;4.80;;
10977;SDS011;5542;48.272;10.794;2023-08-20T08:19:08;5.13;;;4.13;;
10977;SDS011;5542;48.272;10.794;2023-08-20T08:21:35;4.95;;;4.15;;
10977;SDS011;5542;48.272;10.794;2023-08-20T08:24:02;4.82;;;4.32;;
10977;SDS011;5542;48.272;10.794;2023-08-20T08:26:29;4.32;;;3.92;;
10977;SDS011;5542;48.272;10.794;2023-08-20T08:28:55;4.82;;;4.45;;
10977;SDS011;5542;48.272;10.794;2023-08-20T08:31:22;5.30;;;4.22;;
10977;SDS011;5542;48.272;10.794;2023-08-20T08:33:49;4.30;;;3.90;;
10977;SDS011;5542;48.272;10.794;2023-08-20T08:36:17;4.55;;;3.80;;
10977;SDS011;5542;48.272;10.794;2023-08-20T08:38:44;4.60;;;4.13;;
10977;SDS011;5542;48.272;10.794;2023-08-20T08:41:11;5.38;;;4.88;;
10977;SDS011;5542;48.272;10.794;2023-08-20T08:43:39;7.30;;;6.60;;
10977;SDS011;5542;48.272;10.794;2023-08-20T08:46:06;6.15;;;4.40;;
10977;SDS011;5542;48.272;10.794;2023-08-20T08:48:36;4.40;;;4.00;;
10977;SDS011;5542;48.272;10.794;2023-08-20T08:51:03;4.25;;;3.92;;
10977;SDS011;5542;48.272;10.794;2023-08-20T08:53:31;4.25;;;3.85;;
10977;SDS011;5542;48.272;10.794;2023-08-20T08:55:58;9.35;;;8.38;;
10977;SDS011;5542;48.272;10.794;2023-08-20T08:58:25;3.83;;;3.53;;
10977;SDS011;5542;48.272;10.794;2023-08-20T09:00:53;4.60;;;4.03;;
10977;SDS011;5542;48.272;10.794;2023-08-20T09:03:19;4.40;;;4.10;;
10977;SDS011;5542;48.272;10.794;2023-08-20T09:05:46;5.03;;;4.53;;
10977;SDS011;5542;48.272;10.794;2023-08-20T09:08:26;5.28;;;4.32;;
10977;SDS011;5542;48.272;10.794;2023-08-20T09:10:56;4.95;;;3.80;;
10977;SDS011;5542;48.272;10.794;2023-08-20T09:13:24;4.05;;;3.65;;
10977;SDS011;5542;48.272;10.794;2023-08-20T09:15:52;4.28;;;3.75;;
10977;SDS011;5542;48.272;10.794;2023-08-20T09:18:19;5.00;;;4.13;;
10977;SDS011;5542;48.272;10.794;2023-08-20T09:20:47;4.13;;;3.70;;
10977;SDS011;5542;48.272;10.794;2023-08-20T09:23:15;3.90;;;3.60;;
10977;SDS011;5542;48.272;10.794;2023-08-20T09:25:42;4.03;;;3.47;;
10977;SDS011;5542;48.272;10.794;2023-08-20T09:28:11;5.03;;;3.70;;
10977;SDS011;5542;48.272;10.794;2023-08-20T09:30:38;4.03;;;3.63;;
10977;SDS011;5542;48.272;10.794;2023-08-20T09:33:07;5.03;;;3.80;;
10977;SDS011;5542;48.272;10.794;2023-08-20T09:35:36;4.60;;;3.92;;
10977;SDS011;5542;48.272;10.794;2023-08-20T09:38:02;4.28;;;3.90;;
10977;SDS011;5542;48.272;10.794;2023-08-20T09:40:30;4.45;;;4.05;;
10977;SDS011;5542;48.272;10.794;2023-08-20T09:42:57;4.18;;;3.75;;
10977;SDS011;5542;48.272;10.794;2023-08-20T09:45:25;4.55;;;3.70;;
10977;SDS011;5542;48.272;10.794;2023-08-20T09:47:55;4.23;;;3.83;;
10977;SDS011;5542;48.272;10.794;2023-08-20T09:50:23;4.30;;;3.90;;
10977;SDS011;5542;48.272;10.794;2023-08-20T09:52:55;4.88;;;3.40;;
10977;SDS011;5542;48.272;10.794;2023-08-20T09:55:27;4.60;;;4.10;;
10977;SDS011;5542;48.272;10.794;2023-08-20T09:57:58;5.63;;;4.23;;
10977;SDS011;5542;48.272;10.794;2023-08-20T10:00:28;4.75;;;3.97;;
10977;SDS011;5542;48.272;10.794;2023-08-20T10:02:55;4.00;;;3.70;;
10977;SDS011;5542;48.272;10.794;2023-08-20T10:05:22;4.63;;;3.97;;
10977;SDS011;5542;48.272;10.794;2023-08-20T10:07:49;4.13;;;3.73;;
10977;SDS011;5542;48.272;10.794;2023-08-20T10:10:17;5.00;;;4.03;;
10977;SDS011;5542;48.272;10.794;2023-08-20T10:12:44;5.53;;;3.70;;
10977;SDS011;5542;48.272;10.794;2023-08-20T10:15:12;4.10;;;3.80;;
10977;SDS011;5542;48.272;10.794;2023-08-20T10:17:41;5.35;;;3.58;;
10977;SDS011;5542;48.272;10.794;2023-08-20T10:20:11;6.00;;;3.65;;
10977;SDS011;5542;48.272;10.794;2023-08-20T10:22:40;4.22;;;3.83;;
10977;SDS011;5542;48.272;10.794;2023-08-20T10:25:07;4.50;;;4.05;;
10977;SDS011;5542;48.272;10.794;2023-08-20T10:27:35;6.97;;;3.67;;
10977;SDS011;5542;48.272;10.794;2023-08-20T10:30:07;6.20;;;4.07;;
10977;SDS011;5542;48.272;10.794;2023-08-20T10:32:44;4.40;;;4.00;;
10977;SDS011;5542;48.272;10.794;2023-08-20T10:35:12;3.90;;;3.50;;
10977;SDS011;5542;48.272;10.794;2023-08-20T10:37:49;4.47;;;3.78;;
10977;SDS011;5542;48.272;10.794;2023-08-20T10:43:30;4.20;;;3.80;;
10977;SDS011;5542;48.272;10.794;2023-08-20T10:46:16;4.05;;;3.60;;
10977;SDS011;5542;48.272;10.794;2023-08-20T10:48:48;3.83;;;3.50;;
10977;SDS011;5542;48.272;10.794;2023-08-20T10:51:16;5.97;;;3.75;;
10977;SDS011;5542;48.272;10.794;2023-08-20T10:53:48;5.47;;;3.80;;
10977;SDS011;5542;48.272;10.794;2023-08-20T10:56:37;3.85;;;3.55;;
10977;SDS011;5542;48.272;10.794;2023-08-20T10:59:05;5.68;;;3.60;;
10977;SDS011;5542;48.272;10.794;2023-08-20T11:01:33;5.30;;;3.75;;
10977;SDS011;5542;48.272;10.794;2023-08-20T11:04:02;5.30;;;3.80;;
10977;SDS011;5542;48.272;10.794;2023-08-20T11:06:32;3.30;;;3.10;;
10977;SDS011;5542;48.272;10.794;2023-08-20T11:08:59;4.57;;;3.87;;
10977;SDS011;5542;48.272;10.794;2023-08-20T11:11:29;4.53;;;3.50;;
10977;SDS011;5542;48.272;10.794;2023-08-20T11:13:56;4.47;;;3.85;;
10977;SDS011;5542;48.272;10.794;2023-08-20T11:16:23;3.50;;;3.20;;
10977;SDS011;5542;48.272;10.794;2023-08-20T11:18:51;5.97;;;3.57;;
10977;SDS011;5542;48.272;10.794;2023-08-20T11:21:19;3.90;;;3.50;;
10977;SDS011;5542;48.272;10.794;2023-08-20T11:23:46;3.30;;;3.00;;
10977;SDS011;5542;48.272;10.794;2023-08-20T11:26:13;3.90;;;3.60;;
10977;SDS011;5542;48.272;10.794;2023-08-20T11:28:44;3.70;;;3.38;;
10977;SDS011;5542;48.272;10.794;2023-08-20T11:31:11;7.38;;;3.70;;
10977;SDS011;5542;48.272;10.794;2023-08-20T11:33:38;4.22;;;3.28;;
10977;SDS011;5542;48.272;10.794;2023-08-20T11:36:05;3.45;;;3.15;;
10977;SDS011;5542;48.272;10.794;2023-08-20T11:38:33;2.63;;;2.53;;
10977;SDS011;5542;48.272;10.794;2023-08-20T11:41:00;4.80;;;3.58;;
10977;SDS011;5542;48.272;10.794;2023-08-20T11:43:27;4.60;;;3.10;;
10977;SDS011;5542;48.272;10.794;2023-08-20T11:45:54;3.53;;;3.30;;
10977;SDS011;5542;48.272;10.794;2023-08-20T11:48:20;2.88;;;2.67;;
10977;SDS011;5542;48.272;10.794;2023-08-20T11:50:47;3.20;;;2.90;;
10977;SDS011;5542;48.272;10.794;2023-08-20T11:53:14;3.53;;;3.10;;
10977;SDS011;5542;48.272;10.794;2023-08-20T11:55:42;5.05;;;3.33;;
10977;SDS011;5542;48.272;10.794;2023-08-20T11:58:09;4.50;;;3.15;;
10977;SDS011;5542;48.272;10.794;2023-08-20T12:00:38;3.00;;;2.80;;
10977;SDS011;5542;48.272;10.794;2023-08-20T12:03:04;3.40;;;3.10;;
10977;SDS011;5542;48.272;10.794;2023-08-20T12:05:31;3.60;;;3.00;;
10977;SDS011;5542;48.272;10.794;2023-08-20T12:07:58;3.28;;;2.90;;
10977;SDS011;5542;48.272;10.794;2023-08-20T12:10:26;3.55;;;3.10;;
10977;SDS011;5542;48.272;10.794;2023-08-20T12:12:55;3.10;;;2.80;;
10977;SDS011;5542;48.272;10.794;2023-08-20T12:15:24;3.50;;;3.20;;
10977;SDS011;5542;48.272;10.794;2023-08-20T12:18:00;2.95;;;2.75;;
10977;SDS011;5542;48.272;10.794;2023-08-20T12:20:29;4.65;;;3.15;;
10977;SDS011;5542;48.272;10.794;2023-08-20T12:23:00;3.55;;;3.25;;
10977;SDS011;5542;48.272;10.794;2023-08-20T12:25:30;5.00;;;3.03;;
10977;SDS011;5542;48.272;10.794;2023-08-20T12:27:58;2.85;;;2.65;;
10977;SDS011;5542;48.272;10.794;2023-08-20T12:30:25;3.13;;;2.85;;
10977;SDS011;5542;48.272;10.794;2023-08-20T12:32:52;3.08;;;2.88;;
10977;SDS011;5542;48.272;10.794;2023-08-20T12:35:18;2.80;;;2.60;;
10977;SDS011;5542;48.272;10.794;2023-08-20T12:37:45;2.63;;;2.42;;
10977;SDS011;5542;48.272;10.794;2023-08-20T12:40:12;2.70;;;2.50;;
10977;SDS011;5542;48.272;10.794;2023-08-20T12:42:38;4.53;;;2.95;;
10977;SDS011;5542;48.272;10.794;2023-08-20T12:45:07;3.42;;;2.35;;
10977;SDS011;5542;48.272;10.794;2023-08-20T12:47:35;3.38;;;2.90;;
10977;SDS011;5542;48.272;10.794;2023-08-20T12:50:02;2.78;;;2.58;;
10977;SDS011;5542;48.272;10.794;2023-08-20T12:52:29;2.90;;;2.60;;
10977;SDS011;5542;48.272;10.794;2023-08-20T12:54:56;2.83;;;2.63;;
10977;SDS011;5542;48.272;10.794;2023-08-20T12:57:22;2.63;;;2.42;;
10977;SDS011;5542;48.272;10.794;2023-08-20T12:59:49;3.38;;;3.08;;
10977;SDS011;5542;48.272;10.794;2023-08-20T13:02:17;3.13;;;2.75;;
10977;SDS011;5542;48.272;10.794;2023-08-20T13:04:44;2.83;;;2.63;;
10977;SDS011;5542;48.272;10.794;2023-08-20T13:07:11;3.63;;;3.00;;
10977;SDS011;5542;48.272;10.794;2023-08-20T13:09:39;3.15;;;2.42;;
10977;SDS011;5542;48.272;10.794;2023-08-20T13:12:06;2.90;;;2.70;;
10977;SDS011;5542;48.272;10.794;2023-08-20T13:14:37;3.47;;;2.70;;
10977;SDS011;5542;48.272;10.794;2023-08-20T13:17:05;3.15;;;2.72;;
10977;SDS011;5542;48.272;10.794;2023-08-20T13:19:34;2.60;;;2.40;;
10977;SDS011;5542;48.272;10.794;2023-08-20T13:22:00;4.00;;;2.75;;
10977;SDS011;5542;48.272;10.794;2023-08-20T13:24:27;3.13;;;2.90;;
10977;SDS011;5542;48.272;10.794;2023-08-20T13:26:53;2.95;;;2.70;;
10977;SDS011;5542;48.272;10.794;2023-08-20T13:29:20;2.90;;;2.70;;
10977;SDS011;5542;48.272;10.794;2023-08-20T13:31:46;2.40;;;2.20;;
10977;SDS011;5542;48.272;10.794;2023-08-20T13:34:13;2.60;;;2.40;;
10977;SDS011;5542;48.272;10.794;2023-08-20T13:36:41;3.03;;;2.83;;
10977;SDS011;5542;48.272;10.794;2023-08-20T13:39:08;2.97;;;2.78;;
10977;SDS011;5542;48.272;10.794;2023-08-20T13:41:36;3.72;;;2.90;;
10977;SDS011;5542;48.272;10.794;2023-08-20T13:44:03;3.33;;;2.85;;
10977;SDS011;5542;48.272;10.794;2023-08-20T13:46:30;3.10;;;2.90;;
10977;SDS011;5542;48.272;10.794;2023-08-20T13:48:57;2.95;;;2.60;;
10977;SDS011;5542;48.272;10.794;2023-08-20T13:51:23;3.40;;;3.00;;
10977;SDS011;5542;48.272;10.794;2023-08-20T13:53:52;4.20;;;2.90;;
10977;SDS011;5542;48.272;10.794;2023-08-20T13:56:18;3.25;;;2.95;;
10977;SDS011;5542;48.272;10.794;2023-08-20T13:58:45;3.40;;;3.10;;
10977;SDS011;5542;48.272;10.794;2023-08-20T14:01:11;3.58;;;3.30;;
10977;SDS011;5542;48.272;10.794;2023-08-20T14:03:38;3.28;;;2.80;;
10977;SDS011;5542;48.272;10.794;2023-08-20T14:06:05;3.08;;;2.78;;
10977;SDS011;5542;48.272;10.794;2023-08-20T14:08:32;2.90;;;2.70;;
10977;SDS011;5542;48.272;10.794;2023-08-20T14:11:00;5.40;;;2.95;;
10977;SDS011;5542;48.272;10.794;2023-08-20T14:13:26;3.60;;;3.10;;
10977;SDS011;5542;48.272;10.794;2023-08-20T14:15:53;3.22;;;3.03;;
10977;SDS011;5542;48.272;10.794;2023-08-20T14:18:19;4.05;;;3.00;;
10977;SDS011;5542;48.272;10.794;2023-08-20T14:20:47;3.33;;;3.00;;
10977;SDS011;5542;48.272;10.794;2023-08-20T14:23:15;4.15;;;3.10;;
10977;SDS011;5542;48.272;10.794;2023-08-20T14:25:42;3.50;;;3.03;;
10977;SDS011;5542;48.272;10.794;2023-08-20T14:28:10;2.90;;;2.70;;
10977;SDS011;5542;48.272;10.794;2023-08-20T14:30:36;2.60;;;2.40;;
10977;SDS011;5542;48.272;10.794;2023-08-20T14:33:04;2.95;;;2.75;;
10977;SDS011;5542;48.272;10.794;2023-08-20T14:35:31;3.35;;;3.05;;
10977;SDS011;5542;48.272;10.794;2023-08-20T14:37:58;3.00;;;2.70;;
10977;SDS011;5542;48.272;10.794;2023-08-20T14:40:25;6.93;;;5.30;;
10977;SDS011;5542;48.272;10.794;2023-08-20T14:42:51;5.05;;;3.33;;
10977;SDS011;5542;48.272;10.794;2023-08-20T14:45:19;5.40;;;4.00;;
10977;SDS011;5542;48.272;10.794;2023-08-20T14:47:46;3.63;;;3.20;;
10977;SDS011;5542;48.272;10.794;2023-08-20T14:50:12;3.00;;;2.80;;
10977;SDS011;5542;48.272;10.794;2023-08-20T14:52:39;2.50;;;2.40;;
10977;SDS011;5542;48.272;10.794;2023-08-20T14:55:06;2.97;;;2.78;;